Time;durP1;ratioP1;P1;durP2;ratioP2;P2;SDS_P1;SDS_P2;PMS_P1;PMS_P2;Temp;Humidity;BMP_temperature;BMP_pressure;BME280_temperature;BME280_humidity;BME280_pressure;Samples;Min_cycle;Max_cycle;Signal;HPM_P1;HPM_P2
2021/12/06 00:01:13;;;;;;;5.72;4.60;;;15.90;45.30;;;;;;5060348;28;20023;-38
2021/12/06 00:03:45;;;;;;;5.55;4.53;;;15.90;45.30;;;;;;5077396;28;20024;-38
2021/12/06 00:06:12;;;;;;;5.97;5.10;;;15.90;45.30;;;;;;5076937;28;20075;-38
2021/12/06 00:08:38;;;;;;;6.03;5.05;;;15.90;45.30;;;;;;5076585;28;20021;-38
2021/12/06 00:11:08;;;;;;;5.90;4.75;;;15.80;45.30;;;;;;5076662;28;20021;-37
2021/12/06 00:13:38;;;;;;;;;;;15.90;45.30;;;;;;5076610;28;20479;-38
2021/12/06 00:16:09;;;;;;;5.97;4.53;;;15.90;45.20;;;;;;5076550;28;19907;-38
2021/12/06 00:18:35;;;;;;;7.10;5.13;;;15.90;45.20;;;;;;5076254;28;20021;-38
2021/12/06 00:21:01;;;;;;;4.55;4.10;;;15.90;45.20;;;;;;5076507;28;20363;-38
2021/12/06 00:23:30;;;;;;;6.18;4.75;;;15.90;45.20;;;;;;5076988;28;20016;-38
2021/12/06 00:25:56;;;;;;;5.22;4.47;;;15.90;45.20;;;;;;5077370;28;20099;-38
2021/12/06 00:28:22;;;;;;;5.72;4.55;;;15.90;45.10;;;;;;5077583;28;20051;-38
2021/12/06 00:30:48;;;;;;;4.90;4.30;;;15.90;45.10;;;;;;5076995;28;20467;-38
2021/12/06 00:33:14;;;;;;;5.10;4.47;;;15.90;45.40;;;;;;5076802;28;20109;-38
2021/12/06 00:35:41;;;;;;;5.53;4.30;;;15.90;45.10;;;;;;5076595;28;20024;-38
2021/12/06 00:38:07;;;;;;;5.50;4.43;;;15.90;45.10;;;;;;5076211;28;20027;-39
2021/12/06 00:40:35;;;;;;;6.13;4.57;;;15.90;45.10;;;;;;5076266;28;20383;-39
2021/12/06 00:43:01;;;;;;;6.20;4.75;;;15.90;45.10;;;;;;5075990;28;20482;-37
2021/12/06 00:45:27;;;;;;;5.45;4.60;;;15.90;45.00;;;;;;5075922;28;20024;-38
2021/12/06 00:47:53;;;;;;;5.30;4.53;;;16.00;45.00;;;;;;5075373;28;20090;-38
2021/12/06 00:50:20;;;;;;;5.55;4.35;;;15.90;45.00;;;;;;5076230;28;20096;-38
2021/12/06 00:52:46;;;;;;;5.32;4.53;;;15.90;45.00;;;;;;5075603;28;20020;-38
2021/12/06 00:55:13;;;;;;;5.18;4.53;;;15.90;45.00;;;;;;5075463;28;20407;-37
2021/12/06 00:57:39;;;;;;;4.43;4.03;;;15.90;45.00;;;;;;5075665;28;20092;-38
2021/12/06 01:00:15;;;;;;;5.68;4.22;;;15.90;45.00;;;;;;5075590;28;20070;-38
2021/12/06 01:02:41;;;;;;;4.53;3.92;;;16.00;45.00;;;;;;5075325;28;20099;-38
2021/12/06 01:05:07;;;;;;;5.68;4.22;;;16.00;45.00;;;;;;5057237;28;20027;-38
2021/12/06 01:07:33;;;;;;;5.25;4.18;;;16.00;45.00;;;;;;5058126;28;20037;-38
2021/12/06 01:09:59;;;;;;;5.28;4.30;;;16.00;44.90;;;;;;5058682;28;20043;-38
2021/12/06 01:12:25;;;;;;;4.68;3.88;;;16.00;45.00;;;;;;5076362;28;20470;-38
2021/12/06 01:14:50;;;;;;;6.40;4.55;;;16.00;45.00;;;;;;5076191;28;20021;-37
2021/12/06 01:17:17;;;;;;;5.20;4.18;;;16.00;44.90;;;;;;5075911;28;20017;-39
2021/12/06 01:19:42;;;;;;;5.07;4.30;;;16.00;44.90;;;;;;5075287;28;20490;-38
2021/12/06 01:22:19;;;;;;;4.95;3.95;;;16.00;45.00;;;;;;5075595;28;20025;-39
2021/12/06 01:24:54;;;;;;;5.25;4.25;;;16.00;45.00;;;;;;5075222;28;20013;-38
2021/12/06 01:27:43;;;;;;;4.60;3.97;;;15.90;44.90;;;;;;5041265;28;20475;-39
2021/12/06 01:41:01;;;;;;;4.65;4.00;;;16.00;44.90;;;;;;5075661;28;20032;-38
2021/12/06 01:43:28;;;;;;;4.65;3.97;;;16.00;44.90;;;;;;5074653;28;20103;-38
2021/12/06 01:45:56;;;;;;;4.57;3.85;;;16.00;45.00;;;;;;5074959;28;20531;-38
2021/12/06 01:48:22;;;;;;;4.40;4.00;;;16.00;44.90;;;;;;5074490;28;20497;-38
2021/12/06 01:50:48;;;;;;;4.15;3.58;;;16.00;44.90;;;;;;5074312;28;20504;-37
2021/12/06 01:53:15;;;;;;;4.63;4.00;;;16.00;44.90;;;;;;5074694;28;20032;-38
2021/12/06 01:55:42;;;;;;;4.65;4.03;;;16.00;44.90;;;;;;5075026;28;20013;-38
2021/12/06 01:58:08;;;;;;;4.50;3.78;;;16.00;44.80;;;;;;5074571;28;20013;-37
2021/12/06 02:00:44;;;;;;;4.03;3.55;;;16.00;44.80;;;;;;5074728;28;20101;-38
2021/12/06 02:03:10;;;;;;;4.55;3.90;;;16.00;44.90;;;;;;5074603;28;20020;-37
2021/12/06 02:05:36;;;;;;;5.20;4.18;;;16.00;44.80;;;;;;5074552;28;20021;-38
2021/12/06 02:08:04;;;;;;;4.38;3.97;;;16.00;44.90;;;;;;5074790;28;20070;-37
2021/12/06 02:10:30;;;;;;;4.88;4.05;;;16.00;44.90;;;;;;5074312;28;20056;-39
2021/12/06 02:12:56;;;;;;;4.53;3.92;;;16.00;44.90;;;;;;5074477;28;20027;-38
2021/12/06 02:18:04;;;;;;;5.18;4.00;;;16.00;44.90;;;;;;5074423;28;20107;-38
2021/12/06 02:20:30;;;;;;;4.55;4.10;;;16.00;45.00;;;;;;5056309;28;20069;-38
2021/12/06 02:22:57;;;;;;;5.63;4.63;;;15.90;44.90;;;;;;5074416;28;20048;-38
2021/12/06 02:25:23;;;;;;;5.85;4.22;;;16.00;45.00;;;;;;5074114;28;20050;-38
2021/12/06 02:27:51;;;;;;;4.93;3.88;;;16.00;45.00;;;;;;5074297;28;20024;-38
2021/12/06 02:30:17;;;;;;;5.28;4.25;;;16.00;44.90;;;;;;5073980;28;20016;-37
2021/12/06 02:32:44;;;;;;;4.72;4.28;;;16.00;44.90;;;;;;5056409;28;20129;-38
2021/12/06 02:35:14;;;;;;;5.07;4.00;;;16.00;45.00;;;;;;5056358;28;20020;-37
2021/12/06 02:37:40;;;;;;;4.85;4.35;;;16.00;44.90;;;;;;5073487;28;20091;-37
2021/12/06 02:40:11;;;;;;;5.13;4.20;;;16.00;44.90;;;;;;5073807;28;20013;-38
2021/12/06 02:42:37;;;;;;;4.90;4.40;;;16.00;44.90;;;;;;5074093;28;20044;-38
2021/12/06 02:45:04;;;;;;;5.10;4.22;;;16.00;45.40;;;;;;5055677;28;20099;-38
2021/12/06 02:47:30;;;;;;;5.32;4.03;;;16.00;44.90;;;;;;5073821;28;20031;-38
2021/12/06 02:49:59;;;;;;;4.90;4.13;;;16.00;45.50;;;;;;5074168;28;20111;-38
2021/12/06 02:52:25;;;;;;;4.95;4.35;;;16.00;45.00;;;;;;5073862;28;20028;-38
2021/12/06 02:54:56;;;;;;;4.85;4.10;;;16.00;44.90;;;;;;5073974;28;20027;-38
2021/12/06 02:57:32;;;;;;;4.53;4.07;;;16.00;44.90;;;;;;5073984;28;20017;-38
2021/12/06 02:59:58;;;;;;;4.90;4.40;;;16.00;44.90;;;;;;5055684;28;20009;-38
2021/12/06 03:02:44;;;;;;;4.80;4.30;;;16.00;45.00;;;;;;5073808;28;20040;-38
2021/12/06 03:05:09;;;;;;;5.43;4.53;;;16.00;45.00;;;;;;5073976;28;20467;-38
2021/12/06 03:07:37;;;;;;;5.07;4.22;;;16.00;44.90;;;;;;5056044;28;20471;-38
2021/12/06 03:10:04;;;;;;;4.70;4.15;;;16.00;44.90;;;;;;5056119;28;20033;-38
2021/12/06 03:12:29;;;;;;;5.25;4.57;;;16.00;44.90;;;;;;5055282;28;20410;-38
2021/12/06 03:14:57;;;;;;;4.88;4.13;;;16.00;44.90;;;;;;5073514;28;20131;-38
2021/12/06 03:17:40;;;;;;;4.68;4.18;;;16.00;44.90;;;;;;5073568;28;20061;-38
2021/12/06 03:20:09;;;;;;;4.53;4.00;;;16.00;44.80;;;;;;5073647;28;20013;-38
2021/12/06 03:22:35;;;;;;;4.65;4.00;;;16.00;44.80;;;;;;5073525;28;20025;-37
2021/12/06 03:25:04;;;;;;;5.22;4.45;;;16.00;44.90;;;;;;5073451;28;20029;-38
2021/12/06 03:27:31;;;;;;;;;;;16.00;44.80;;;;;;5056692;28;20029;-37
2021/12/06 03:29:57;;;;;;;5.00;4.50;;;16.00;44.80;;;;;;5077325;28;19905;-38
2021/12/06 03:32:23;;;;;;;5.35;4.80;;;16.00;44.80;;;;;;5077198;28;20135;-39
2021/12/06 03:34:49;;;;;;;4.93;4.43;;;16.00;44.90;;;;;;5077657;28;20017;-38
2021/12/06 03:37:15;;;;;;;5.47;4.30;;;16.00;44.80;;;;;;5077756;28;20071;-38
2021/12/06 03:39:43;;;;;;;5.85;4.53;;;16.00;44.80;;;;;;5059767;28;20021;-38
2021/12/06 03:42:10;;;;;;;5.43;4.47;;;16.00;44.80;;;;;;5078222;28;20028;-38
2021/12/06 03:44:36;;;;;;;5.15;4.60;;;16.00;44.80;;;;;;5060861;28;20036;-38
2021/12/06 03:47:11;;;;;;;5.40;4.40;;;16.00;44.80;;;;;;5078672;28;20032;-40
2021/12/06 03:49:38;;;;;;;5.30;4.43;;;16.00;44.80;;;;;;5078407;28;20008;-39
2021/12/06 03:52:04;;;;;;;4.50;4.00;;;16.00;44.80;;;;;;5078485;28;20028;-38
2021/12/06 03:54:31;;;;;;;5.00;4.50;;;16.00;44.80;;;;;;5078748;28;20024;-38
2021/12/06 03:56:59;;;;;;;5.30;4.28;;;16.00;44.80;;;;;;5061020;28;20070;-38
2021/12/06 03:59:26;;;;;;;4.65;4.07;;;16.00;44.80;;;;;;5078509;28;20103;-39
2021/12/06 04:01:52;;;;;;;4.97;4.45;;;16.00;44.70;;;;;;5060524;28;20021;-38
2021/12/06 04:04:19;;;;;;;4.55;4.15;;;16.00;44.70;;;;;;5078338;28;20013;-38
2021/12/06 04:06:45;;;;;;;6.88;4.93;;;16.10;44.70;;;;;;5078083;28;20054;-38
2021/12/06 04:09:11;;;;;;;5.10;4.30;;;16.10;44.60;;;;;;5078159;28;20032;-37
2021/12/06 04:11:37;;;;;;;5.10;4.60;;;16.10;44.60;;;;;;5077150;28;20028;-38
2021/12/06 04:14:03;;;;;;;5.72;4.30;;;16.10;44.60;;;;;;5076771;28;20029;-38
2021/12/06 04:16:29;;;;;;;4.65;4.10;;;16.10;44.60;;;;;;5077409;28;20005;-38
2021/12/06 04:18:55;;;;;;;5.43;4.13;;;16.10;44.60;;;;;;5077348;28;20577;-38
2021/12/06 04:21:21;;;;;;;4.50;4.10;;;16.10;44.40;;;;;;5078090;28;20043;-38
2021/12/06 04:23:47;;;;;;;5.00;4.28;;;16.20;44.40;;;;;;5077684;28;20364;-38
2021/12/06 04:26:14;;;;;;;5.88;4.25;;;16.20;44.30;;;;;;5077814;28;20028;-39
2021/12/06 04:28:47;;;;;;;5.57;4.40;;;16.20;44.30;;;;;;5060091;28;20027;-38
2021/12/06 04:31:13;;;;;;;4.75;4.03;;;16.30;44.30;;;;;;5077464;28;20033;-38
2021/12/06 04:33:40;;;;;;;6.00;4.10;;;16.30;44.00;;;;;;5060206;28;20048;-39
2021/12/06 04:36:05;;;;;;;4.53;4.07;;;16.30;44.00;;;;;;5077845;28;20070;-38
2021/12/06 04:38:31;;;;;;;4.47;4.00;;;16.40;43.90;;;;;;5059618;28;20423;-38
2021/12/06 04:40:57;;;;;;;5.28;4.13;;;16.40;43.80;;;;;;5058693;28;20012;-37
2021/12/06 04:43:23;;;;;;;5.20;4.55;;;16.40;43.70;;;;;;5076901;28;20012;-38
2021/12/06 04:45:49;;;;;;;4.70;4.20;;;16.50;43.60;;;;;;5058090;28;20513;-39
2021/12/06 04:48:15;;;;;;;4.78;3.60;;;16.50;43.50;;;;;;5057665;28;20426;-38
2021/12/06 04:50:42;;;;;;;4.78;4.00;;;16.60;43.40;;;;;;5058011;28;20035;-38
2021/12/06 04:53:22;;;;;;;4.50;3.75;;;16.60;43.30;;;;;;5075948;28;20089;-38
2021/12/06 04:55:58;;;;;;;4.35;3.85;;;16.70;43.20;;;;;;5075983;28;20008;-38
2021/12/06 04:58:29;;;;;;;4.57;4.18;;;16.70;43.00;;;;;;5057417;28;20023;-38
2021/12/06 05:00:59;;;;;;;4.85;4.10;;;16.80;42.90;;;;;;5075544;28;20005;-39
2021/12/06 05:03:26;;;;;;;4.53;4.05;;;16.80;42.80;;;;;;5075659;28;20019;-38
2021/12/06 05:05:59;;;;;;;5.75;3.65;;;16.80;42.70;;;;;;5075408;28;20021;-38
2021/12/06 05:08:27;;;;;;;6.70;4.53;;;16.90;42.70;;;;;;5075571;28;20013;-38
2021/12/06 05:10:53;;;;;;;4.05;3.65;;;16.90;42.60;;;;;;5075643;28;20021;-38
2021/12/06 05:13:20;;;;;;;5.15;4.00;;;17.00;42.50;;;;;;5075662;28;20021;-38
2021/12/06 05:15:47;;;;;;;4.50;3.60;;;17.00;42.40;;;;;;5057970;28;20017;-38
2021/12/06 05:18:14;;;;;;;5.22;3.65;;;17.00;42.30;;;;;;5075855;28;20058;-38
2021/12/06 05:20:40;;;;;;;4.25;3.85;;;17.00;42.20;;;;;;5076293;28;20023;-38
2021/12/06 05:23:07;;;;;;;4.78;3.97;;;17.10;42.20;;;;;;5075540;28;20073;-38
2021/12/06 05:25:33;;;;;;;4.65;4.13;;;17.20;42.00;;;;;;5075284;28;20095;-39
2021/12/06 05:28:00;;;;;;;4.00;3.70;;;17.20;42.00;;;;;;5075367;28;20100;-38
2021/12/06 05:30:27;;;;;;;4.20;3.80;;;17.30;41.90;;;;;;5074992;28;20424;-38
2021/12/06 05:32:54;;;;;;;4.70;3.70;;;17.30;41.80;;;;;;5074556;28;20521;-38
2021/12/06 05:35:20;;;;;;;4.22;3.83;;;17.30;41.60;;;;;;5057099;28;20008;-38
2021/12/06 05:37:48;;;;;;;4.70;3.85;;;17.40;41.60;;;;;;5075133;28;20025;-38
2021/12/06 05:40:19;;;;;;;4.55;4.00;;;17.40;41.40;;;;;;5075019;28;20012;-38
2021/12/06 05:42:45;;;;;;;4.75;3.70;;;17.40;41.40;;;;;;5074642;28;20013;-38
2021/12/06 05:45:13;;;;;;;3.83;3.40;;;17.40;41.30;;;;;;5075043;28;20017;-38
2021/12/06 05:47:40;;;;;;;4.40;3.70;;;17.50;41.30;;;;;;5075133;28;20016;-37
2021/12/06 05:50:07;;;;;;;4.32;3.92;;;17.50;41.20;;;;;;5074631;28;20099;-38
2021/12/06 05:52:34;;;;;;;4.25;3.50;;;17.50;41.10;;;;;;5074264;28;20029;-38
2021/12/06 05:55:00;;;;;;;3.80;3.47;;;17.60;41.00;;;;;;5074564;28;20009;-37
2021/12/06 05:57:26;;;;;;;4.40;3.55;;;17.50;41.50;;;;;;5074616;28;20026;-38
2021/12/06 05:59:52;;;;;;;3.97;3.55;;;17.60;40.90;;;;;;5074508;28;20074;-38
2021/12/06 06:02:19;;;;;;;4.45;3.90;;;17.60;40.90;;;;;;5056613;28;20021;-38
2021/12/06 06:04:45;;;;;;;5.00;3.38;;;17.60;40.80;;;;;;5075292;28;20475;-38
2021/12/06 06:07:11;;;;;;;4.28;3.60;;;17.70;40.70;;;;;;5056741;28;20024;-38
2021/12/06 06:09:37;;;;;;;5.30;4.00;;;17.70;40.60;;;;;;5074191;28;20058;-38
2021/12/06 06:12:05;;;;;;;5.00;3.50;;;17.80;40.50;;;;;;5074182;28;20450;-39
2021/12/06 06:14:32;;;;;;;4.35;3.40;;;17.80;40.50;;;;;;5074318;28;20016;-38
2021/12/06 06:17:07;;;;;;;3.88;3.50;;;17.80;40.40;;;;;;5074231;28;20023;-38
2021/12/06 06:19:33;;;;;;;3.92;3.53;;;17.80;40.30;;;;;;5074326;28;20046;-39
2021/12/06 06:21:58;;;;;;;4.07;3.60;;;17.90;40.20;;;;;;5056534;28;20020;-38
2021/12/06 06:24:24;;;;;;;5.15;3.92;;;17.90;40.10;;;;;;5074648;28;20017;-38
2021/12/06 06:26:50;;;;;;;4.82;3.72;;;18.00;40.20;;;;;;5074241;28;20029;-38
2021/12/06 06:29:16;;;;;;;5.38;4.10;;;18.00;40.00;;;;;;5056513;28;20012;-37
2021/12/06 06:31:42;;;;;;;4.22;3.60;;;18.00;39.90;;;;;;5055933;28;20020;-38
2021/12/06 06:34:11;;;;;;;5.13;3.90;;;18.00;39.90;;;;;;5052280;28;20442;-38
2021/12/06 06:36:37;;;;;;;4.93;3.80;;;18.10;39.90;;;;;;5054402;28;20037;-38
2021/12/06 06:39:05;;;;;;;4.10;3.45;;;18.10;39.80;;;;;;5052261;28;20048;-38
2021/12/06 06:41:31;;;;;;;4.82;4.10;;;18.10;39.70;;;;;;5053721;28;20035;-38
2021/12/06 06:43:57;;;;;;;4.00;3.60;;;18.10;39.60;;;;;;5052643;28;20025;-39
2021/12/06 06:46:24;;;;;;;4.57;4.07;;;18.10;39.60;;;;;;5053859;28;20013;-38
2021/12/06 06:48:50;;;;;;;4.55;3.70;;;18.10;39.50;;;;;;5052239;28;20033;-38
2021/12/06 06:51:16;;;;;;;4.68;3.72;;;18.20;39.50;;;;;;5053911;28;20025;-38
2021/12/06 06:53:42;;;;;;;5.07;4.18;;;18.20;39.30;;;;;;5052251;28;20460;-38
2021/12/06 06:56:08;;;;;;;5.28;4.10;;;18.30;39.30;;;;;;5053752;28;20029;-39
2021/12/06 06:58:33;;;;;;;4.97;3.88;;;18.30;39.30;;;;;;5053415;28;20017;-38
2021/12/06 07:00:59;;;;;;;5.55;4.40;;;18.30;39.20;;;;;;5053363;28;20024;-38
2021/12/06 07:03:31;;;;;;;4.85;4.20;;;18.30;39.10;;;;;;5055214;28;20024;-39
2021/12/06 07:06:00;;;;;;;5.80;4.30;;;18.40;39.10;;;;;;5056491;28;20461;-38
2021/12/06 07:08:26;;;;;;;5.60;4.50;;;18.40;38.90;;;;;;5057358;28;20013;-38
2021/12/06 07:10:54;;;;;;;5.85;4.28;;;18.40;38.90;;;;;;5057075;28;20025;-38
2021/12/06 07:13:21;;;;;;;5.30;4.43;;;18.40;38.70;;;;;;5039496;28;20036;-38
2021/12/06 07:15:47;;;;;;;6.55;4.88;;;18.50;38.80;;;;;;5055153;28;20036;-38
2021/12/06 07:18:13;;;;;;;5.25;4.22;;;18.50;38.70;;;;;;5057366;28;20025;-38
2021/12/06 07:20:38;;;;;;;6.47;4.85;;;18.50;38.60;;;;;;5054178;28;20022;-38
2021/12/06 07:23:05;;;;;;;15.98;8.38;;;18.50;38.50;;;;;;5054063;28;20048;-37
2021/12/06 07:25:31;;;;;;;13.38;7.25;;;17.60;40.40;;;;;;5054549;28;20025;-38
2021/12/06 07:27:58;;;;;;;23.13;9.77;;;16.90;42.60;;;;;;5055914;28;20021;-38
2021/12/06 07:30:24;;;;;;;25.27;9.90;;;16.90;43.90;;;;;;5056264;28;20021;-38
2021/12/06 07:32:51;;;;;;;24.25;11.35;;;16.90;43.60;;;;;;5054772;28;20049;-38
2021/12/06 07:35:17;;;;;;;17.50;11.80;;;16.80;44.00;;;;;;5055236;28;20009;-38
2021/12/06 07:37:43;;;;;;;19.90;12.10;;;16.40;42.80;;;;;;5055162;28;20013;-38
2021/12/06 07:40:10;;;;;;;18.17;12.00;;;16.50;43.30;;;;;;5054608;28;20459;-38
2021/12/06 07:42:35;;;;;;;19.67;11.35;;;16.60;43.70;;;;;;5055932;28;20019;-38
2021/12/06 07:45:02;;;;;;;20.63;11.80;;;16.60;43.20;;;;;;5055792;28;20025;-38
2021/12/06 07:47:29;;;;;;;18.80;11.93;;;16.60;43.40;;;;;;5055844;28;20059;-38
2021/12/06 07:49:55;;;;;;;19.35;11.77;;;16.60;43.40;;;;;;5056345;28;20159;-37
2021/12/06 07:52:21;;;;;;;18.75;11.88;;;16.60;43.30;;;;;;5054832;28;20044;-38
2021/12/06 07:54:46;;;;;;;19.02;11.40;;;16.50;43.30;;;;;;5054716;28;20013;-38
2021/12/06 07:57:13;;;;;;;15.85;11.55;;;16.60;43.40;;;;;;5054565;28;20105;-38
2021/12/06 07:59:39;;;;;;;16.33;11.18;;;16.50;42.40;;;;;;5055853;28;20017;-37
2021/12/06 08:02:05;;;;;;;18.02;11.45;;;16.30;43.70;;;;;;5053999;28;20017;-37
2021/12/06 08:04:32;;;;;;;18.25;11.70;;;16.50;43.50;;;;;;5054226;28;20020;-37
2021/12/06 08:06:57;;;;;;;17.13;11.48;;;16.50;43.10;;;;;;5055455;28;20017;-38
2021/12/06 08:09:23;;;;;;;19.40;10.90;;;16.30;43.50;;;;;;5055428;28;20032;-37
2021/12/06 08:11:49;;;;;;;17.23;11.35;;;16.30;43.20;;;;;;5054969;28;20436;-38
2021/12/06 08:14:15;;;;;;;17.63;11.35;;;16.20;44.00;;;;;;5055887;28;20345;-38
2021/12/06 08:16:43;;;;;;;19.63;11.05;;;16.30;43.20;;;;;;5053802;28;20084;-39
2021/12/06 08:19:10;;;;;;;17.25;10.43;;;16.40;42.30;;;;;;5037602;28;20013;-38
2021/12/06 08:21:37;;;;;;;23.05;10.93;;;16.40;41.70;;;;;;5037182;28;20052;-37
2021/12/06 08:24:04;;;;;;;23.98;11.32;;;16.40;43.20;;;;;;5055380;28;20036;-37
2021/12/06 08:26:31;;;;;;;24.05;10.98;;;16.50;43.60;;;;;;5055483;28;20025;-37
2021/12/06 08:28:57;;;;;;;26.38;11.23;;;16.50;42.90;;;;;;5055142;28;20097;-38
2021/12/06 08:31:23;;;;;;;23.50;10.43;;;16.40;43.00;;;;;;5053761;28;20069;-38
2021/12/06 08:33:49;;;;;;;21.88;11.27;;;16.50;43.40;;;;;;5072119;28;20130;-38
2021/12/06 08:36:15;;;;;;;23.83;10.90;;;16.50;42.60;;;;;;5075285;28;20467;-39
2021/12/06 08:38:41;;;;;;;21.05;10.43;;;16.40;42.90;;;;;;5075951;28;20024;-38
2021/12/06 08:41:11;;;;;;;22.42;11.02;;;16.40;43.40;;;;;;5075229;28;20009;-37
2021/12/06 08:43:37;;;;;;;20.65;9.40;;;16.40;43.60;;;;;;5075268;28;20013;-38
2021/12/06 08:46:16;;;;;;;19.00;10.30;;;16.50;43.60;;;;;;5058045;28;20015;-37
2021/12/06 08:48:41;;;;;;;19.92;10.02;;;16.50;43.10;;;;;;5075149;28;20029;-38
2021/12/06 08:51:19;;;;;;;16.05;10.13;;;16.30;42.30;;;;;;5057552;28;20015;-38
2021/12/06 08:53:45;;;;;;;18.38;9.88;;;16.10;42.90;;;;;;5075444;28;20020;-38
2021/12/06 08:56:11;;;;;;;16.92;10.07;;;16.10;43.50;;;;;;5057126;28;20013;-37
2021/12/06 08:58:37;;;;;;;14.52;10.20;;;16.20;43.40;;;;;;5074951;28;20534;-38
2021/12/06 09:01:03;;;;;;;17.95;11.02;;;16.20;43.30;;;;;;5074365;28;20051;-41
2021/12/06 09:03:30;;;;;;;22.60;10.40;;;15.70;42.80;;;;;;5055930;28;20112;-38
2021/12/06 09:05:56;;;;;;;33.22;10.20;;;15.60;45.00;;;;;;5055694;28;20012;-38
2021/12/06 09:08:23;;;;;;;20.38;8.93;;;15.20;47.40;;;;;;5055139;28;20057;-38
2021/12/06 09:10:52;;;;;;;24.45;9.18;;;15.20;47.50;;;;;;5073183;28;20020;-38
2021/12/06 09:13:21;;;;;;;17.40;10.05;;;15.50;46.20;;;;;;5073779;28;20054;-38
2021/12/06 09:15:51;;;;;;;21.48;11.02;;;15.80;44.60;;;;;;5055714;28;20013;-39
2021/12/06 09:18:17;;;;;;;21.67;11.23;;;15.90;43.40;;;;;;5039275;28;20020;-38
2021/12/06 09:20:44;;;;;;;17.20;10.25;;;15.90;43.00;;;;;;5073569;28;20475;-37
2021/12/06 09:23:10;;;;;;;18.10;10.98;;;16.00;42.70;;;;;;5073905;28;20017;-38
2021/12/06 09:25:36;;;;;;;19.90;10.75;;;16.00;42.20;;;;;;5055591;28;20471;-38
2021/12/06 09:28:02;;;;;;;18.33;10.45;;;15.90;41.70;;;;;;5073954;28;20028;-38
2021/12/06 09:30:30;;;;;;;15.25;10.60;;;15.80;41.60;;;;;;5074179;28;20062;-38
2021/12/06 09:32:57;;;;;;;14.43;10.57;;;15.80;41.30;;;;;;5073515;28;20041;-38
2021/12/06 09:35:26;;;;;;;16.27;10.73;;;15.80;41.20;;;;;;5073551;28;20021;-39
2021/12/06 09:37:54;;;;;;;14.40;10.80;;;15.80;41.10;;;;;;5055875;28;20012;-38
2021/12/06 09:40:21;;;;;;;14.50;10.38;;;15.80;40.70;;;;;;5073833;28;20029;-38
2021/12/06 09:42:47;;;;;;;15.13;10.75;;;15.70;40.40;;;;;;5055691;28;20031;-38
2021/12/06 09:45:23;;;;;;;13.15;10.00;;;15.60;40.80;;;;;;5073915;28;20028;-38
2021/12/06 09:47:51;;;;;;;13.95;9.90;;;15.60;40.60;;;;;;5073701;28;20075;-39
2021/12/06 09:50:25;;;;;;;14.40;10.30;;;15.70;40.50;;;;;;5074162;28;20016;-37
2021/12/06 09:52:54;;;;;;;13.77;9.88;;;15.70;40.40;;;;;;5073555;28;20020;-38
2021/12/06 09:55:20;;;;;;;12.07;9.90;;;15.70;40.40;;;;;;5074240;28;20017;-39
2021/12/06 09:57:46;;;;;;;14.13;10.52;;;15.70;40.20;;;;;;5056444;28;20023;-38
2021/12/06 10:00:12;;;;;;;12.30;10.38;;;15.70;40.10;;;;;;5039113;28;20032;-38
2021/12/06 10:02:38;;;;;;;14.23;10.30;;;15.40;40.70;;;;;;5056220;28;20005;-38
2021/12/06 10:05:05;;;;;;;12.05;9.50;;;15.50;40.70;;;;;;5073508;28;20469;-38
2021/12/06 10:07:31;;;;;;;11.68;9.63;;;15.60;40.50;;;;;;5073607;28;20070;-38
2021/12/06 10:09:58;;;;;;;13.20;9.88;;;15.70;40.30;;;;;;5054856;28;20533;-38
2021/12/06 10:12:24;;;;;;;11.30;9.48;;;15.80;40.20;;;;;;5055215;28;20048;-38
2021/12/06 10:14:51;;;;;;;12.15;9.48;;;15.90;40.10;;;;;;5055971;28;20052;-38
2021/12/06 10:17:17;;;;;;;11.38;9.02;;;16.00;39.90;;;;;;5073557;28;20383;-38
2021/12/06 10:19:44;;;;;;;12.07;9.05;;;16.10;39.80;;;;;;5055669;28;20063;-39
2021/12/06 10:22:09;;;;;;;12.55;9.32;;;16.00;39.80;;;;;;5073718;28;20498;-40
2021/12/06 10:24:35;;;;;;;11.18;9.05;;;16.00;40.00;;;;;;5073805;28;20025;-38
2021/12/06 10:27:11;;;;;;;10.40;8.45;;;16.00;39.80;;;;;;5072780;28;20551;-38
2021/12/06 10:30:01;;;;;;;10.10;8.35;;;16.10;39.60;;;;;;5073128;28;20051;-37
2021/12/06 10:32:30;;;;;;;11.07;8.63;;;16.20;39.40;;;;;;5073363;28;20095;-39
2021/12/06 10:35:02;;;;;;;11.05;8.88;;;16.00;39.90;;;;;;5055146;28;20387;-38
2021/12/06 10:37:45;;;;;;;11.55;8.57;;;15.90;39.80;;;;;;5055368;28;20021;-41
2021/12/06 10:40:16;;;;;;;10.35;7.95;;;15.90;40.00;;;;;;5074164;28;20571;-38
2021/12/06 10:42:50;;;;;;;10.18;8.55;;;16.10;39.70;;;;;;5057181;28;20020;-38
2021/12/06 10:45:27;;;;;;;10.02;8.20;;;15.60;40.20;;;;;;5073354;28;20009;-38
2021/12/06 10:48:13;;;;;;;10.27;8.25;;;15.40;40.70;;;;;;5074064;28;20016;-39
2021/12/06 10:50:43;;;;;;;11.43;8.50;;;15.60;40.30;;;;;;5073601;28;20069;-38
2021/12/06 10:53:11;;;;;;;11.32;7.90;;;15.70;39.90;;;;;;5073528;28;20071;-38
2021/12/06 10:55:38;;;;;;;10.95;8.40;;;15.70;39.80;;;;;;5073594;28;20088;-38
2021/12/06 10:58:06;;;;;;;9.10;8.05;;;15.90;39.50;;;;;;5056470;28;20016;-38
2021/12/06 11:00:39;;;;;;;9.77;7.82;;;15.70;39.50;;;;;;5056285;28;20086;-39
2021/12/06 11:03:05;;;;;;;10.07;8.13;;;15.80;39.60;;;;;;5058146;28;20048;-38
2021/12/06 11:05:35;;;;;;;11.32;8.10;;;15.80;39.50;;;;;;5057327;28;20036;-39
2021/12/06 11:08:11;;;;;;;;;;;15.90;39.30;;;;;;5058821;28;20029;-38
2021/12/06 11:10:58;;;;;;;10.88;8.73;;;15.90;39.10;;;;;;5058153;28;19907;-39
2021/12/06 11:13:30;;;;;;;9.15;7.78;;;15.80;39.50;;;;;;5058127;28;20035;-38
2021/12/06 11:16:01;;;;;;;8.90;7.78;;;15.80;39.40;;;;;;5057592;28;20091;-38
2021/12/06 11:18:36;;;;;;;9.07;7.90;;;15.80;39.40;;;;;;5075117;28;20103;-38
2021/12/06 11:21:03;;;;;;;9.77;8.13;;;15.60;39.80;;;;;;5075122;28;20470;-39
2021/12/06 11:23:28;;;;;;;10.75;8.35;;;15.50;39.90;;;;;;5075350;28;20060;-38
2021/12/06 11:25:58;;;;;;;10.60;8.10;;;15.50;39.90;;;;;;5057437;28;20013;-38
2021/12/06 11:28:26;;;;;;;11.77;8.30;;;15.30;40.20;;;;;;5057235;28;20092;-38
2021/12/06 11:31:03;;;;;;;12.20;8.02;;;15.40;39.80;;;;;;5056961;28;20105;-38
2021/12/06 11:33:33;;;;;;;12.93;7.70;;;15.40;41.10;;;;;;5074873;28;20056;-38
2021/12/06 11:36:13;;;;;;;9.50;7.15;;;15.40;41.40;;;;;;5057566;28;20001;-38
2021/12/06 11:38:39;;;;;;;13.35;8.00;;;15.30;41.30;;;;;;5056372;28;20178;-40
2021/12/06 11:41:05;;;;;;;9.52;7.30;;;15.20;41.20;;;;;;5073755;28;20013;-38
2021/12/06 11:43:30;;;;;;;10.20;7.13;;;15.20;41.60;;;;;;5056478;28;20020;-38
2021/12/06 11:45:57;;;;;;;10.38;6.80;;;15.20;41.10;;;;;;5055335;28;20541;-37
2021/12/06 11:48:35;;;;;;;10.50;6.90;;;15.00;42.10;;;;;;5053692;28;20012;-38
2021/12/06 11:51:11;;;;;;;16.05;7.43;;;15.50;41.40;;;;;;5075925;28;20008;-37
2021/12/06 11:53:39;;;;;;;21.05;7.30;;;15.60;42.90;;;;;;5076053;28;20430;-40
2021/12/06 11:56:09;;;;;;;28.10;14.48;;;16.00;42.70;;;;;;5058236;28;20525;-39
2021/12/06 11:58:37;;;;;;;14.65;7.78;;;16.40;43.00;;;;;;5075720;28;20005;-38
2021/12/06 12:01:10;;;;;;;16.15;7.70;;;16.70;42.00;;;;;;5075651;28;20039;-38
2021/12/06 12:03:36;;;;;;;22.10;7.60;;;17.00;41.90;;;;;;5057886;28;20449;-40
2021/12/06 12:06:03;;;;;;;13.13;7.30;;;17.10;41.80;;;;;;5058308;28;20552;-38
2021/12/06 12:08:32;;;;;;;14.93;7.32;;;16.60;42.00;;;;;;5075362;28;20021;-39
2021/12/06 12:10:58;;;;;;;18.55;7.72;;;16.40;43.00;;;;;;5056919;28;20036;-38
2021/12/06 12:13:29;;;;;;;17.17;8.05;;;16.60;42.70;;;;;;5056555;28;20028;-38
2021/12/06 12:15:58;;;;;;;20.08;11.68;;;16.70;42.50;;;;;;5075502;28;20086;-38
2021/12/06 12:18:24;;;;;;;21.95;13.38;;;15.90;44.20;;;;;;5040972;28;20064;-38
2021/12/06 12:20:51;;;;;;;32.10;21.42;;;16.20;43.90;;;;;;5074975;28;20028;-38
2021/12/06 12:23:18;;;;;;;38.75;20.83;;;17.10;43.90;;;;;;5056940;28;20135;-38
2021/12/06 12:26:09;;;;;;;22.35;14.20;;;17.50;42.00;;;;;;5075058;28;20028;-38
2021/12/06 12:28:36;;;;;;;19.15;11.07;;;17.10;40.30;;;;;;5073933;28;20476;-37
2021/12/06 12:31:03;;;;;;;17.85;9.57;;;15.90;43.50;;;;;;5040692;28;20024;-40
2021/12/06 12:33:29;;;;;;;12.95;8.02;;;15.90;43.00;;;;;;5074624;28;20067;-37
2021/12/06 12:36:20;;;;;;;17.90;7.90;;;16.00;42.20;;;;;;5057385;28;20066;-38
2021/12/06 12:38:47;;;;;;;10.77;7.13;;;15.10;43.20;;;;;;5055991;28;20147;-38
2021/12/06 12:41:15;;;;;;;10.75;6.45;;;14.20;43.60;;;;;;5074862;28;20060;-37
2021/12/06 12:43:45;;;;;;;11.80;6.05;;;14.20;44.80;;;;;;5074780;28;20540;-37
2021/12/06 12:46:18;;;;;;;13.32;5.68;;;14.60;44.20;;;;;;5075307;28;20078;-38
2021/12/06 12:48:44;;;;;;;10.63;5.70;;;15.10;43.50;;;;;;5057402;28;20012;-37
2021/12/06 12:51:12;;;;;;;15.05;6.50;;;15.40;42.80;;;;;;5074987;28;20020;-38
2021/12/06 12:53:59;;;;;;;11.68;6.57;;;15.50;43.00;;;;;;5057470;28;20048;-38
2021/12/06 12:56:26;;;;;;;11.65;6.07;;;15.80;42.10;;;;;;5074868;28;20005;-38
2021/12/06 12:58:52;;;;;;;12.25;6.00;;;15.80;41.50;;;;;;5040374;28;20067;-37